San Jon, NM (88434)

3:31 PM MST on November 25, 2014 (GMT -0700)
Tucumcari Municipal | Change Station
CLOSE
Current Station
Airport
Location: Tucumcari,
Elevation: 4065 ft
Nearby Weather Stations

Elev 4065 ft 35.18 °N, 103.60 °W | Updated 38 minutes ago

Partly Cloudy
Partly Cloudy
56 °F
Feels Like 56 °F
N
20
Wind Variable Wind from West
Gusts 30 mph

Today
High -- | Low -- °F
--% Chance of Precip.
Yesterday
High -- | Low -- °F
Precip. -- in
6:37 AM 4:42 PM
Waxing Crescent, 14% visible
Pressure 29.98 in
Visibility 10.0 miles
Clouds Clear
Dew Point 12 °F
Humidity 18%
Rainfall 0.00 in
Snow Depth Not available.
UV 1 out of 12
Pollen 4.10 out of 12
Air Quality Not available.
Flu Activity Not available.
METAR KTCC 252153Z AUTO 26017G26KT 10SM CLR 13/M11 A3001 RMK AO2 PK WND 26027/2106 SLP150 T01331111

More Conditions Fewer Conditions

Pressure 29.98 in
Visibility 10.0 miles
Clouds Clear
Dew Point 12 °F
Humidity 18%
Rainfall 0.00 in
Snow Depth Not available.
UV 1 out of 12
Pollen 4.10 out of 12
Air Quality Not available.
Flu Activity Not available.
METAR KTCC 252153Z AUTO 26017G26KT 10SM CLR 13/M11 A3001 RMK AO2 PK WND 26027/2106 SLP150 T01331111

More Conditions Fewer Conditions

Nowcast | as of 2:36 PM MST on November 25, 2014

Gusty westerly winds will persist for the rest of this afternoon over the east Central Plains. Sustained speeds of 20 to 30 mph with gusts to around 45 mph will be common over the region. North to south oriented highways will be most affected such as Highway 285 and state roads 287...288...330 and 267.

×

10-Day Weather Forecast

Almanac

Astronomy

Nov. 25, 2014 Rise Set
Actual Time
Civil Twilight
Nautical Twilight
Astronomical Twilight
Moon
Length of Visible Light
Length of Day
Tomorrow will be .
, % of the Moon is Illuminated

Today's Extremes

State Highs State Lows

Community

WunderPhotos

Upload Photos

1,773,609 photos uploaded!

WunderBlogs® & News

Nearby

Air Quality

  Air Quality AQ Index Pollutant
Not available.

Snow Depth

Station Depth Elevation

Earthquake Activity

City Distance Mag. Time & Date
Minimum magnitude displayed is 2.5.

Coastal Water Temperatures

Place Temperature

Nearby Weather Stations